createdAt,value
2017-11-23T00:02:25.351Z,7.87
2017-11-23T00:04:52.775Z,7.50
2017-11-23T00:07:20.211Z,6.85
2017-11-23T00:09:47.654Z,6.97
2017-11-23T00:12:15.112Z,6.80
2017-11-23T00:14:42.552Z,6.80
2017-11-23T00:17:09.984Z,8.52
2017-11-23T00:19:38.186Z,7.68
2017-11-23T00:22:05.607Z,8.20
2017-11-23T00:24:33.832Z,8.13
2017-11-23T00:27:01.259Z,7.93
2017-11-23T00:29:28.746Z,7.65
2017-11-23T00:31:56.196Z,7.70
2017-11-23T00:34:23.628Z,7.50
2017-11-23T00:36:51.107Z,8.07
2017-11-23T00:39:18.537Z,7.30
2017-11-23T00:41:45.964Z,7.45
2017-11-23T00:44:14.168Z,6.80
2017-11-23T00:46:41.596Z,6.50
2017-11-23T00:49:09.832Z,7.10
2017-11-23T00:51:37.259Z,6.90
2017-11-23T00:54:04.696Z,6.93
2017-11-23T00:56:32.129Z,7.35
2017-11-23T00:59:00.319Z,6.60
2017-11-23T01:01:27.816Z,6.87
2017-11-23T01:03:55.253Z,7.00
2017-11-23T01:06:22.741Z,6.40
2017-11-23T01:08:50.188Z,5.97
2017-11-23T01:11:17.624Z,6.10
2017-11-23T01:13:45.044Z,5.97
2017-11-23T01:16:13.260Z,6.07
2017-11-23T01:18:40.728Z,6.27
2017-11-23T01:21:08.183Z,12.63
2017-11-23T01:23:35.747Z,6.18
2017-11-23T01:26:03.207Z,6.00
2017-11-23T01:28:30.632Z,5.97
2017-11-23T01:30:58.067Z,6.32
2017-11-23T01:33:26.291Z,6.03
2017-11-23T01:35:53.917Z,6.07
2017-11-23T01:38:22.128Z,5.60
2017-11-23T01:40:49.580Z,5.95
2017-11-23T01:43:17.049Z,5.30
2017-11-23T01:45:44.527Z,5.10
2017-11-23T01:48:12.011Z,5.20
2017-11-23T01:50:40.204Z,5.28
2017-11-23T01:53:07.680Z,4.87
2017-11-23T01:55:35.151Z,4.95
2017-11-23T01:58:02.592Z,4.85
2017-11-23T02:00:30.036Z,5.00
2017-11-23T02:02:57.476Z,5.05
2017-11-23T02:05:24.918Z,5.50
2017-11-23T02:07:52.359Z,4.50
2017-11-23T02:10:20.587Z,5.05
2017-11-23T02:12:48.024Z,5.12
2017-11-23T02:15:15.451Z,4.90
2017-11-23T02:17:43.647Z,4.72
2017-11-23T02:20:11.082Z,4.60
2017-11-23T02:22:39.277Z,5.12
2017-11-23T02:25:06.713Z,4.72
2017-11-23T02:27:34.919Z,4.50
2017-11-23T02:30:02.349Z,4.97
2017-11-23T02:32:29.780Z,4.20
2017-11-23T02:34:57.986Z,4.60
2017-11-23T02:37:25.430Z,4.65
2017-11-23T02:39:53.633Z,4.80
2017-11-23T02:42:21.068Z,4.47
2017-11-23T02:44:48.564Z,4.85
2017-11-23T02:47:16.007Z,5.28
2017-11-23T02:49:43.443Z,4.90
2017-11-23T02:52:10.871Z,5.20
2017-11-23T02:54:39.072Z,4.70
2017-11-23T02:57:06.507Z,4.87
2017-11-23T02:59:34.705Z,4.50
2017-11-23T03:02:02.141Z,4.30
2017-11-23T03:04:30.368Z,4.70
2017-11-23T03:06:57.800Z,4.60
2017-11-23T03:09:25.272Z,4.40
2017-11-23T03:11:52.709Z,4.80
2017-11-23T03:14:20.143Z,5.00
2017-11-23T03:16:47.574Z,4.80
2017-11-23T03:19:15.899Z,4.63
2017-11-23T03:21:43.311Z,5.07
2017-11-23T03:24:10.744Z,4.60
2017-11-23T03:26:38.173Z,4.47
2017-11-23T03:29:05.640Z,4.65
2017-11-23T03:31:33.076Z,4.22
2017-11-23T03:34:00.507Z,4.20
2017-11-23T03:36:28.695Z,4.30
2017-11-23T03:38:56.136Z,4.15
2017-11-23T03:41:24.372Z,3.80
2017-11-23T03:43:51.934Z,4.57
2017-11-23T03:46:19.370Z,4.43
2017-11-23T03:48:46.833Z,4.07
2017-11-23T03:51:14.286Z,4.05
2017-11-23T03:53:41.736Z,3.90
2017-11-23T03:56:09.173Z,4.25
2017-11-23T03:58:36.595Z,4.10
2017-11-23T04:01:04.048Z,4.60
2017-11-23T04:03:32.291Z,4.10
2017-11-23T04:05:59.748Z,3.80
2017-11-23T04:08:27.209Z,4.00
2017-11-23T04:10:54.664Z,4.30
2017-11-23T04:13:22.210Z,3.80
2017-11-23T04:15:49.660Z,4.30
2017-11-23T04:18:17.098Z,4.47
2017-11-23T04:20:44.524Z,4.10
2017-11-23T04:23:12.754Z,4.40
2017-11-23T04:25:40.230Z,4.05
2017-11-23T04:28:07.758Z,3.87
2017-11-23T04:30:35.216Z,4.82
2017-11-23T04:33:02.671Z,4.78
2017-11-23T04:35:30.096Z,4.32
2017-11-23T04:37:57.598Z,4.05
2017-11-23T04:40:25.046Z,4.37
2017-11-23T04:42:52.501Z,4.50
2017-11-23T04:45:19.932Z,4.40
2017-11-23T04:47:47.380Z,3.92
2017-11-23T04:50:14.878Z,3.83
2017-11-23T04:52:42.300Z,4.27
2017-11-23T04:55:09.745Z,3.67
2017-11-23T04:57:37.172Z,3.87
2017-11-23T05:00:04.791Z,4.50
2017-11-23T05:02:32.259Z,4.45
2017-11-23T05:04:59.691Z,4.30
2017-11-23T05:07:27.128Z,4.15
2017-11-23T05:09:54.619Z,3.90
2017-11-23T05:12:22.094Z,3.70
2017-11-23T05:14:49.522Z,3.90
2017-11-23T05:17:16.947Z,4.30
2017-11-23T05:19:44.451Z,3.78
2017-11-23T05:22:11.921Z,4.55
2017-11-23T05:24:39.382Z,4.35
2017-11-23T05:27:06.826Z,4.87
2017-11-23T05:29:34.259Z,4.70
2017-11-23T05:32:01.742Z,4.00
2017-11-23T05:34:29.169Z,4.10
2017-11-23T05:36:56.647Z,4.60
2017-11-23T05:39:24.080Z,4.50
2017-11-23T05:41:51.564Z,4.10
2017-11-23T05:44:19.009Z,4.55
2017-11-23T05:46:46.439Z,4.15
2017-11-23T05:49:13.886Z,4.25
2017-11-23T05:51:41.380Z,4.05
2017-11-23T05:54:08.811Z,4.22
2017-11-23T05:56:36.388Z,4.12
2017-11-23T05:59:03.873Z,4.40
2017-11-23T06:01:31.313Z,4.35
2017-11-23T06:03:58.745Z,4.60
2017-11-23T06:06:26.221Z,4.70
2017-11-23T06:08:53.654Z,4.18
2017-11-23T06:11:21.116Z,5.05
2017-11-23T06:13:48.699Z,4.80
2017-11-23T06:16:16.163Z,4.20
2017-11-23T06:18:43.712Z,4.95
2017-11-23T06:21:11.257Z,4.00
2017-11-23T06:23:38.676Z,4.60
2017-11-23T06:26:06.902Z,4.47
2017-11-23T06:28:34.348Z,4.47
2017-11-23T06:31:01.798Z,4.70
2017-11-23T06:33:29.348Z,5.72
2017-11-23T06:35:56.906Z,4.62
2017-11-23T06:38:24.329Z,4.07
2017-11-23T06:40:52.525Z,4.90
2017-11-23T06:43:19.952Z,4.85
2017-11-23T06:45:48.200Z,4.55
2017-11-23T06:48:15.620Z,4.80
2017-11-23T06:50:43.112Z,5.20
2017-11-23T06:53:10.563Z,5.03
2017-11-23T06:55:37.992Z,5.90
2017-11-23T06:58:05.428Z,5.10
2017-11-23T07:00:32.861Z,5.45
2017-11-23T07:03:01.101Z,5.10
2017-11-23T07:05:28.523Z,4.60
2017-11-23T07:07:56.104Z,4.20
2017-11-23T07:10:23.680Z,4.50
2017-11-23T07:12:51.334Z,4.70
2017-11-23T07:15:18.798Z,4.70
2017-11-23T07:17:51.996Z,4.70
2017-11-23T07:20:20.222Z,4.57
2017-11-23T07:22:47.665Z,4.65
2017-11-23T07:25:15.272Z,5.20
2017-11-23T07:27:42.723Z,5.07
2017-11-23T07:30:10.166Z,5.10
2017-11-23T07:32:37.607Z,4.70
2017-11-23T07:35:05.072Z,4.30
2017-11-23T07:37:32.560Z,5.40
2017-11-23T07:39:59.980Z,5.07
2017-11-23T07:42:27.428Z,5.45
2017-11-23T07:44:54.864Z,5.00
2017-11-23T07:47:23.092Z,5.40
2017-11-23T07:49:50.534Z,5.20
2017-11-23T07:52:17.984Z,5.10
2017-11-23T07:54:45.467Z,5.18
2017-11-23T07:57:12.905Z,4.93
2017-11-23T07:59:40.367Z,6.10
2017-11-23T08:02:07.911Z,5.57
2017-11-23T08:04:35.331Z,5.10
2017-11-23T08:07:03.531Z,5.32
2017-11-23T08:09:31.120Z,4.80
2017-11-23T08:11:58.660Z,5.00
2017-11-23T08:14:26.075Z,4.70
2017-11-23T08:16:54.304Z,4.62
2017-11-23T08:19:21.844Z,5.50
2017-11-23T08:21:49.268Z,5.40
2017-11-23T08:24:17.473Z,5.80
2017-11-23T08:26:44.923Z,5.43
2017-11-23T08:29:12.358Z,6.30
2017-11-23T08:31:40.572Z,5.55
2017-11-23T08:34:08.033Z,4.95
2017-11-23T08:36:35.503Z,6.07
2017-11-23T08:39:03.007Z,5.43
2017-11-23T08:41:30.447Z,7.03
2017-11-23T08:43:58.697Z,6.47
2017-11-23T08:46:26.146Z,6.30
2017-11-23T08:48:53.676Z,5.47
2017-11-23T08:51:21.157Z,5.62
2017-11-23T08:53:48.592Z,6.00
2017-11-23T08:56:19.058Z,6.00
2017-11-23T08:58:46.498Z,5.70
2017-11-23T09:01:18.967Z,5.47
2017-11-23T09:03:46.411Z,6.03
2017-11-23T09:06:13.852Z,5.65
2017-11-23T09:08:41.294Z,6.20
2017-11-23T09:11:08.713Z,4.80
2017-11-23T09:13:36.343Z,6.00
2017-11-23T09:16:03.783Z,5.25
2017-11-23T09:18:31.288Z,5.90
2017-11-23T09:20:58.798Z,5.50
2017-11-23T09:23:26.212Z,5.68
2017-11-23T09:25:53.639Z,5.80
2017-11-23T09:28:21.163Z,5.80
2017-11-23T09:30:48.764Z,5.70
2017-11-23T09:33:16.318Z,5.60
2017-11-23T09:35:43.756Z,5.78
2017-11-23T09:38:11.189Z,5.90
2017-11-23T09:40:38.640Z,5.62
2017-11-23T09:43:06.068Z,5.37
2017-11-23T09:45:34.405Z,6.07
2017-11-23T09:48:01.844Z,5.22
2017-11-23T09:50:29.286Z,5.47
2017-11-23T09:52:56.876Z,5.65
2017-11-23T09:55:24.336Z,5.90
2017-11-23T09:57:51.771Z,6.03
2017-11-23T10:00:19.199Z,5.80
2017-11-23T10:02:46.704Z,5.80
2017-11-23T10:05:14.230Z,6.30
2017-11-23T10:07:41.728Z,5.70
2017-11-23T10:10:09.156Z,5.80
2017-11-23T10:12:36.638Z,5.90
2017-11-23T10:15:04.055Z,6.22
2017-11-23T10:17:31.490Z,6.40
2017-11-23T10:19:59.693Z,6.40
2017-11-23T10:22:27.356Z,5.47
2017-11-23T10:24:54.801Z,6.43
2017-11-23T10:27:22.236Z,6.10
2017-11-23T10:29:50.436Z,5.45
2017-11-23T10:32:17.912Z,6.12
2017-11-23T10:34:45.360Z,5.70
2017-11-23T10:37:12.800Z,6.07
2017-11-23T10:39:40.246Z,5.40
2017-11-23T10:42:07.683Z,6.57
2017-11-23T10:44:35.883Z,5.32
2017-11-23T10:47:03.316Z,5.30
2017-11-23T10:49:31.512Z,5.68
2017-11-23T10:51:58.949Z,5.43
2017-11-23T10:54:27.175Z,4.80
2017-11-23T10:56:54.671Z,4.90
2017-11-23T10:59:22.880Z,4.63
2017-11-23T11:01:50.328Z,5.30
2017-11-23T11:04:17.820Z,5.30
2017-11-23T11:06:45.273Z,5.07
2017-11-23T11:09:12.720Z,5.10
2017-11-23T11:11:40.169Z,4.70
2017-11-23T11:14:07.605Z,4.85
2017-11-23T11:16:35.041Z,5.90
2017-11-23T11:19:03.270Z,5.23
2017-11-23T11:21:30.725Z,5.30
2017-11-23T11:23:58.161Z,5.80
2017-11-23T11:26:25.589Z,5.65
2017-11-23T11:28:53.791Z,5.25
2017-11-23T11:31:21.228Z,5.60
2017-11-23T11:33:48.702Z,5.65
2017-11-23T11:36:16.304Z,4.97
2017-11-23T11:38:43.738Z,5.00
2017-11-23T11:41:11.185Z,5.25
2017-11-23T11:43:38.649Z,4.70
2017-11-23T11:46:06.206Z,5.80
2017-11-23T11:48:33.663Z,6.30
2017-11-23T11:51:01.109Z,7.40
2017-11-23T11:53:28.670Z,7.95
2017-11-23T11:55:56.087Z,6.10
2017-11-23T11:58:24.418Z,6.87
2017-11-23T12:00:51.856Z,5.82
2017-11-23T12:03:19.296Z,5.30
2017-11-23T12:05:46.737Z,5.90
2017-11-23T12:08:14.171Z,6.20
2017-11-23T12:10:42.389Z,6.10
2017-11-23T12:13:09.820Z,6.62
2017-11-23T12:15:38.047Z,5.27
2017-11-23T12:18:17.468Z,5.40
2017-11-23T12:20:56.840Z,5.30
2017-11-23T12:23:36.217Z,5.57
2017-11-23T12:26:03.720Z,6.30
2017-11-23T12:31:28.624Z,5.20
2017-11-23T12:33:56.094Z,5.00
2017-11-23T12:36:23.579Z,5.70
2017-11-23T12:38:51.911Z,5.30
2017-11-23T12:41:19.361Z,5.62
2017-11-23T12:43:46.828Z,5.55
2017-11-23T12:46:14.256Z,5.62
2017-11-23T12:48:41.745Z,5.05
2017-11-23T12:51:09.507Z,5.45
2017-11-23T12:53:36.977Z,5.07
2017-11-23T12:56:04.415Z,5.40
2017-11-23T12:58:31.876Z,4.55
2017-11-23T13:00:59.311Z,5.10
2017-11-23T13:03:26.748Z,4.85
2017-11-23T13:05:54.199Z,5.40
2017-11-23T13:08:21.701Z,4.78
2017-11-23T13:10:49.160Z,4.70
2017-11-23T13:13:16.601Z,6.57
2017-11-23T13:15:44.018Z,5.13
2017-11-23T13:18:11.607Z,5.30
2017-11-23T13:20:39.036Z,4.60
2017-11-23T13:23:06.487Z,4.90
2017-11-23T13:25:34.714Z,5.50
2017-11-23T13:28:02.156Z,4.40
2017-11-23T13:30:29.625Z,4.70
2017-11-23T13:32:57.052Z,4.80
2017-11-23T13:35:25.248Z,5.00
2017-11-23T13:37:52.748Z,4.87
2017-11-23T13:40:20.172Z,5.60
2017-11-23T13:42:47.647Z,5.60
2017-11-23T13:45:15.093Z,4.90
2017-11-23T13:47:42.583Z,5.03
2017-11-23T13:50:10.122Z,5.50
2017-11-23T13:52:37.562Z,5.30
2017-11-23T13:55:05.009Z,6.07
2017-11-23T13:57:32.445Z,5.37
2017-11-23T13:59:59.879Z,5.70
2017-11-23T14:02:28.076Z,5.40
2017-11-23T14:04:55.540Z,5.90
2017-11-23T14:07:23.005Z,6.22
2017-11-23T14:09:50.444Z,5.50
2017-11-23T14:12:17.986Z,5.60
2017-11-23T14:14:45.433Z,5.50
2017-11-23T14:17:13.636Z,5.50
2017-11-23T14:19:41.124Z,5.95
2017-11-23T14:22:08.705Z,5.60
2017-11-23T14:24:36.246Z,6.10
2017-11-23T14:27:03.712Z,6.57
2017-11-23T14:29:31.150Z,5.75
2017-11-23T14:31:58.616Z,5.95
2017-11-23T14:34:26.051Z,6.22
2017-11-23T14:36:53.491Z,5.97
2017-11-23T14:39:20.939Z,6.50
2017-11-23T14:41:48.459Z,6.18
2017-11-23T14:44:15.895Z,6.90
2017-11-23T14:46:43.332Z,7.00
2017-11-23T14:49:10.828Z,6.05
2017-11-23T14:51:38.263Z,6.75
2017-11-23T14:54:05.736Z,7.22
2017-11-23T14:56:33.177Z,6.95
2017-11-23T14:59:00.617Z,7.60
2017-11-23T15:01:28.162Z,6.65
2017-11-23T15:03:55.611Z,8.18
2017-11-23T15:06:23.046Z,7.15
2017-11-23T15:08:50.484Z,7.50
2017-11-23T15:11:17.922Z,6.70
2017-11-23T15:13:45.348Z,6.80
2017-11-23T15:16:13.580Z,6.68
2017-11-23T15:18:41.012Z,6.80
2017-11-23T15:21:08.443Z,6.87
2017-11-23T15:23:35.872Z,6.80
2017-11-23T15:26:03.489Z,7.00
2017-11-23T15:28:30.905Z,6.50
2017-11-23T15:30:58.529Z,6.40
2017-11-23T15:33:25.977Z,7.00
2017-11-23T15:35:53.417Z,6.60
2017-11-23T15:38:20.864Z,7.12
2017-11-23T15:40:48.336Z,6.90
2017-11-23T15:43:15.768Z,7.35
2017-11-23T15:45:43.205Z,6.85
2017-11-23T15:48:10.644Z,7.35
2017-11-23T15:50:38.088Z,7.07
2017-11-23T15:53:05.527Z,7.83
2017-11-23T15:55:32.972Z,7.12
2017-11-23T15:58:00.404Z,7.20
2017-11-23T16:00:27.885Z,6.87
2017-11-23T16:02:55.313Z,7.22
2017-11-23T16:05:23.508Z,7.80
2017-11-23T16:07:50.940Z,7.53
2017-11-23T16:10:19.158Z,7.70
2017-11-23T16:12:46.584Z,6.95
2017-11-23T16:15:14.074Z,7.50
2017-11-23T16:17:41.514Z,7.50
2017-11-23T16:20:08.956Z,6.35
2017-11-23T16:22:36.393Z,8.97
2017-11-23T16:25:04.595Z,8.00
2017-11-23T16:27:32.025Z,8.70
2017-11-23T16:29:59.509Z,8.60
2017-11-23T16:32:26.940Z,9.68
2017-11-23T16:34:54.390Z,8.80
2017-11-23T16:37:26.176Z,8.40
2017-11-23T16:39:55.600Z,9.20
2017-11-23T16:42:23.040Z,9.57
2017-11-23T16:44:56.042Z,12.10
2017-11-23T16:47:29.185Z,10.82
2017-11-23T16:50:03.470Z,10.90
2017-11-23T16:55:32.535Z,8.10
2017-11-23T16:57:59.963Z,7.35
2017-11-23T17:00:33.827Z,6.93
2017-11-23T17:03:07.014Z,6.45
2017-11-23T17:05:40.201Z,5.97
2017-11-23T17:08:23.485Z,6.03
2017-11-23T17:10:56.741Z,5.43
2017-11-23T17:13:31.835Z,5.10
2017-11-23T17:19:07.394Z,4.87
2017-11-23T17:21:35.598Z,3.97
2017-11-23T17:24:03.067Z,3.10
2017-11-23T17:26:30.649Z,2.30
2017-11-23T17:28:58.171Z,2.62
2017-11-23T17:31:26.456Z,2.10
2017-11-23T17:33:53.896Z,2.60
2017-11-23T17:36:21.377Z,2.30
2017-11-23T17:38:48.832Z,2.20
2017-11-23T17:41:16.272Z,1.60
2017-11-23T17:43:43.723Z,1.80
2017-11-23T17:46:11.320Z,1.75
2017-11-23T17:48:38.764Z,1.70
2017-11-23T17:51:06.186Z,2.22
2017-11-23T17:53:33.989Z,2.20
2017-11-23T17:56:01.419Z,1.70
2017-11-23T17:58:28.869Z,1.65
2017-11-23T18:00:56.751Z,2.10
2017-11-23T18:03:25.233Z,2.00
2017-11-23T18:05:52.700Z,2.20
2017-11-23T18:08:20.133Z,2.55
2017-11-23T18:10:47.564Z,2.67
2017-11-23T18:13:15.028Z,2.40
2017-11-23T18:15:42.473Z,2.40
2017-11-23T18:18:10.723Z,2.87
2017-11-23T18:20:38.372Z,2.50
2017-11-23T18:23:05.946Z,2.50
2017-11-23T18:25:34.206Z,2.50
2017-11-23T18:28:01.724Z,2.78
2017-11-23T18:30:29.211Z,2.58
2017-11-23T18:32:56.655Z,2.90
2017-11-23T18:35:24.100Z,3.30
2017-11-23T18:37:51.599Z,2.60
2017-11-23T18:40:19.860Z,3.35
2017-11-23T18:42:47.303Z,3.40
2017-11-23T18:45:15.236Z,3.13
2017-11-23T18:47:42.681Z,3.03
2017-11-23T18:50:10.474Z,3.70
2017-11-23T18:52:37.928Z,3.00
2017-11-23T18:55:05.357Z,3.80
2017-11-23T18:57:33.586Z,3.37
2017-11-23T19:00:01.004Z,3.65
2017-11-23T19:02:28.518Z,3.60
2017-11-23T19:04:56.048Z,3.60
2017-11-23T19:07:23.524Z,3.87
2017-11-23T19:09:51.353Z,4.10
2017-11-23T19:12:18.996Z,3.80
2017-11-23T19:14:46.608Z,4.22
2017-11-23T19:17:14.234Z,5.30
2017-11-23T19:19:41.652Z,4.40
2017-11-23T19:22:09.864Z,4.30
2017-11-23T19:24:37.358Z,4.12
2017-11-23T19:27:04.792Z,4.57
2017-11-23T19:29:32.224Z,4.60
2017-11-23T19:31:59.671Z,4.70
2017-11-23T19:34:27.637Z,4.40
2017-11-23T19:36:55.111Z,4.50
2017-11-23T19:39:22.598Z,4.60
2017-11-23T19:41:50.060Z,4.25
2017-11-23T19:44:17.604Z,3.80
2017-11-23T19:46:45.048Z,3.57
2017-11-23T19:49:12.515Z,3.50
2017-11-23T19:51:39.973Z,3.62
2017-11-23T19:54:07.427Z,3.60
2017-11-23T19:56:34.891Z,3.95
2017-11-23T19:59:02.331Z,3.75
2017-11-23T20:01:29.801Z,4.20
2017-11-23T20:03:57.263Z,4.20
2017-11-23T20:06:24.704Z,3.85
2017-11-23T20:08:52.128Z,3.90
2017-11-23T20:11:19.623Z,3.40
2017-11-23T20:13:47.204Z,3.58
2017-11-23T20:16:14.745Z,3.00
2017-11-23T20:18:42.208Z,3.40
2017-11-23T20:21:09.639Z,3.10
2017-11-23T20:23:37.089Z,3.23
2017-11-23T20:26:04.656Z,3.78
2017-11-23T20:28:32.095Z,3.83
2017-11-23T20:30:59.529Z,3.40
2017-11-23T20:33:28.024Z,3.50
2017-11-23T20:35:55.511Z,3.58
2017-11-23T20:38:22.964Z,3.67
2017-11-23T20:40:51.130Z,4.50
2017-11-23T20:43:18.617Z,3.90
2017-11-23T20:45:46.049Z,4.00
2017-11-23T20:48:13.492Z,4.80
2017-11-23T20:50:40.971Z,5.03
2017-11-23T20:53:08.432Z,5.00
2017-11-23T20:55:35.883Z,4.57
2017-11-23T20:58:03.295Z,4.65
2017-11-23T21:00:30.801Z,4.00
2017-11-23T21:02:58.231Z,4.30
2017-11-23T21:05:26.584Z,3.47
2017-11-23T21:07:54.110Z,3.83
2017-11-23T21:10:21.537Z,4.00
2017-11-23T21:12:48.951Z,4.10
2017-11-23T21:15:16.379Z,4.80
2017-11-23T21:17:43.804Z,4.93
2017-11-23T21:20:11.367Z,4.90
2017-11-23T21:22:38.935Z,4.30
2017-11-23T21:25:06.406Z,4.60
2017-11-23T21:27:34.659Z,4.82
2017-11-23T21:30:02.199Z,4.90
2017-11-23T21:32:29.672Z,5.05
2017-11-23T21:34:57.233Z,4.43
2017-11-23T21:37:24.674Z,4.50
2017-11-23T21:39:52.108Z,4.37
2017-11-23T21:42:19.608Z,4.30
2017-11-23T21:44:47.050Z,3.80
2017-11-23T21:47:14.479Z,4.53
2017-11-23T21:49:41.972Z,4.10
2017-11-23T21:52:09.399Z,4.20
2017-11-23T21:54:36.840Z,4.05
2017-11-23T21:57:04.358Z,4.22
2017-11-23T21:59:31.817Z,4.97
2017-11-23T22:01:59.230Z,4.80
2017-11-23T22:04:26.659Z,3.90
2017-11-23T22:06:54.856Z,4.43
2017-11-23T22:09:22.344Z,4.12
2017-11-23T22:11:49.802Z,4.32
2017-11-23T22:14:17.246Z,4.00
2017-11-23T22:16:44.683Z,3.22
2017-11-23T22:19:12.104Z,4.10
2017-11-23T22:21:40.320Z,3.40
2017-11-23T22:24:07.809Z,3.60
2017-11-23T22:26:35.330Z,4.28
2017-11-23T22:29:02.746Z,3.58
2017-11-23T22:31:31.004Z,3.60
2017-11-23T22:33:58.404Z,4.40
2017-11-23T22:36:25.840Z,3.60
2017-11-23T22:38:53.350Z,3.70
2017-11-23T22:41:20.787Z,3.80
2017-11-23T22:43:48.211Z,4.70
2017-11-23T22:46:15.656Z,5.30
2017-11-23T22:48:43.892Z,3.45
2017-11-23T22:51:11.366Z,4.20
2017-11-23T22:53:38.846Z,4.72
2017-11-23T22:56:07.076Z,4.47
2017-11-23T22:58:34.504Z,4.78
2017-11-23T23:01:01.943Z,4.80
2017-11-23T23:03:30.123Z,4.62
2017-11-23T23:05:57.616Z,3.47
2017-11-23T23:08:25.044Z,3.80
2017-11-23T23:10:52.532Z,3.92
2017-11-23T23:13:19.980Z,3.70
2017-11-23T23:15:47.416Z,4.40
2017-11-23T23:18:14.899Z,3.80
2017-11-23T23:20:42.336Z,3.53
2017-11-23T23:23:09.767Z,3.87
2017-11-23T23:25:38.010Z,3.55
2017-11-23T23:28:05.615Z,3.58
2017-11-23T23:30:33.828Z,3.28
2017-11-23T23:33:01.277Z,3.90
2017-11-23T23:35:28.704Z,3.10
2017-11-23T23:37:56.155Z,3.60
2017-11-23T23:40:23.640Z,2.87
2017-11-23T23:42:51.075Z,3.22
2017-11-23T23:45:18.570Z,3.00
2017-11-23T23:47:45.995Z,3.20
2017-11-23T23:50:13.430Z,3.17
2017-11-23T23:52:40.860Z,3.20
2017-11-23T23:55:08.279Z,2.92
2017-11-23T23:57:35.716Z,3.50
